Athboy, South Dakota
Current Conditions -  °F | °C
As of 7:53 PM on Tuesday 25 Nov 2014 (Local Time) from KHEI Reporting Station
Overcast Overcast  
Wind Chill: -10°   Ceiling: 1100
Heat Index: -2°   Visibility: 10mi
Dew Point: -4°   Wind: 31mph
Humidity: 82%   Direction: 340°NNW
Pressure: 29.9"   Gusts: 40mph
Location:  45.2919°N, 102.298°W
Report Text: KHEI 260253Z AUTO 34027G35KT 10SM OVC011 M02/M04 A2990 RMK AO2 PK WND 32039/0209 PRESRR SLP155 60000 T10171044 53040
Loading
Personal Weather Stations






























Interactive Weather Map New forecast layout! Learn more

10-Day Weather Forecast

Advertisements
Track Severe Weather on mobile